createdAt,value
2018-09-23T00:02:25.734Z,9.27
2018-09-23T00:04:53.874Z,12.17
2018-09-23T00:07:22.011Z,9.10
2018-09-23T00:09:50.142Z,11.17
2018-09-23T00:12:18.289Z,11.43
2018-09-23T00:14:46.423Z,11.90
2018-09-23T00:17:14.561Z,11.50
2018-09-23T00:19:42.698Z,10.03
2018-09-23T00:22:10.904Z,15.40
2018-09-23T00:24:38.999Z,11.93
2018-09-23T00:27:07.130Z,11.57
2018-09-23T00:29:40.473Z,11.20
2018-09-23T00:32:08.683Z,10.03
2018-09-23T00:34:36.793Z,12.23
2018-09-23T00:37:04.963Z,11.00
2018-09-23T00:39:33.134Z,10.23
2018-09-23T00:42:01.279Z,13.00
2018-09-23T00:44:29.402Z,12.50
2018-09-23T00:46:57.545Z,13.87
2018-09-23T00:49:25.697Z,13.30
2018-09-23T00:51:53.842Z,13.50
2018-09-23T00:54:21.969Z,11.57
2018-09-23T00:56:50.115Z,14.70
2018-09-23T00:59:18.247Z,11.47
2018-09-23T01:01:46.403Z,14.57
2018-09-23T01:04:14.542Z,15.80
2018-09-23T01:06:42.695Z,12.63
2018-09-23T01:09:11.066Z,13.10
2018-09-23T01:11:39.442Z,14.30
2018-09-23T01:14:07.606Z,13.30
2018-09-23T01:16:35.836Z,16.17
2018-09-23T01:19:04.007Z,12.20
2018-09-23T01:21:32.193Z,17.50
2018-09-23T01:24:00.349Z,14.37
2018-09-23T01:26:28.501Z,13.93
2018-09-23T01:28:56.642Z,13.20
2018-09-23T01:31:24.799Z,15.20
2018-09-23T01:33:52.943Z,13.03
2018-09-23T01:36:21.075Z,15.83
2018-09-23T01:38:49.218Z,14.50
2018-09-23T01:41:17.363Z,15.13
2018-09-23T01:43:45.567Z,15.30
2018-09-23T01:46:14.026Z,16.60
2018-09-23T01:48:42.169Z,18.93
2018-09-23T01:51:10.428Z,12.57
2018-09-23T01:53:38.555Z,15.67
2018-09-23T01:56:06.687Z,12.80
2018-09-23T01:58:34.908Z,14.67
2018-09-23T02:01:03.058Z,17.50
2018-09-23T02:03:31.202Z,14.83
2018-09-23T02:05:59.355Z,17.03
2018-09-23T02:08:27.507Z,16.80
2018-09-23T02:10:55.653Z,18.83
2018-09-23T02:13:23.825Z,13.70
2018-09-23T02:15:51.955Z,17.53
2018-09-23T02:18:20.103Z,14.80
2018-09-23T02:20:48.245Z,17.80
2018-09-23T02:23:16.414Z,14.57
2018-09-23T02:25:44.558Z,16.60
2018-09-23T02:28:12.709Z,16.37
2018-09-23T02:30:40.936Z,27.93
2018-09-23T02:33:09.114Z,9.80
2018-09-23T02:35:37.281Z,19.60
2018-09-23T02:38:05.448Z,11.90
2018-09-23T02:40:33.678Z,14.70
2018-09-23T02:43:01.818Z,20.23
2018-09-23T02:45:30.022Z,17.27
2018-09-23T02:47:58.178Z,20.30
2018-09-23T02:50:26.391Z,21.43
2018-09-23T02:52:54.567Z,15.57
2018-09-23T02:55:22.711Z,16.20
2018-09-23T02:57:50.865Z,17.47
2018-09-23T03:00:19.011Z,23.13
2018-09-23T03:02:47.162Z,18.67
2018-09-23T03:05:15.316Z,19.50
2018-09-23T03:07:43.462Z,20.27
2018-09-23T03:10:11.613Z,17.23
2018-09-23T03:12:39.765Z,21.60
2018-09-23T03:15:07.900Z,15.53
2018-09-23T03:17:36.053Z,16.60
2018-09-23T03:20:04.316Z,16.33
2018-09-23T03:22:32.460Z,16.23
2018-09-23T03:25:00.594Z,14.60
2018-09-23T03:27:28.746Z,15.60
2018-09-23T03:29:56.921Z,13.93
2018-09-23T03:32:25.182Z,17.60
2018-09-23T03:34:53.334Z,11.83
2018-09-23T03:37:21.499Z,12.50
2018-09-23T03:39:49.634Z,10.77
2018-09-23T03:42:17.770Z,16.63
2018-09-23T03:44:45.910Z,18.13
2018-09-23T03:47:14.050Z,13.57
2018-09-23T03:49:42.199Z,15.57
2018-09-23T03:52:10.338Z,22.07
2018-09-23T03:54:38.534Z,12.57
2018-09-23T03:57:06.695Z,19.33
2018-09-23T03:59:34.858Z,19.60
2018-09-23T04:02:02.998Z,21.40
2018-09-23T04:04:31.181Z,17.90
2018-09-23T04:06:59.316Z,20.20
2018-09-23T04:09:27.459Z,21.73
2018-09-23T04:11:55.683Z,24.60
2018-09-23T04:14:23.742Z,19.77
2018-09-23T04:16:51.887Z,22.57
2018-09-23T04:19:20.051Z,23.50
2018-09-23T04:21:48.200Z,22.17
2018-09-23T04:24:16.365Z,23.20
2018-09-23T04:26:44.499Z,23.60
2018-09-23T04:29:12.652Z,21.10
2018-09-23T04:31:40.813Z,26.47
2018-09-23T04:34:08.954Z,26.03
2018-09-23T04:36:37.098Z,19.47
2018-09-23T04:39:07.677Z,24.93
2018-09-23T04:41:35.816Z,26.20
2018-09-23T04:44:04.075Z,23.27
2018-09-23T04:46:32.239Z,24.27
2018-09-23T04:49:00.400Z,21.03
2018-09-23T04:51:28.554Z,16.30
2018-09-23T04:53:56.718Z,29.53
2018-09-23T04:56:24.886Z,24.87
2018-09-23T04:58:53.050Z,23.27
2018-09-23T05:01:21.201Z,27.80
2018-09-23T05:03:49.414Z,21.73
2018-09-23T05:06:17.574Z,28.30
2018-09-23T05:08:45.755Z,28.20
2018-09-23T05:11:13.893Z,26.60
2018-09-23T05:13:42.202Z,26.17
2018-09-23T05:16:10.513Z,22.33
2018-09-23T05:18:38.762Z,27.13
2018-09-23T05:21:06.922Z,31.03
2018-09-23T05:23:35.074Z,25.77
2018-09-23T05:26:03.227Z,29.90
2018-09-23T05:28:31.515Z,26.67
2018-09-23T05:30:59.693Z,26.37
2018-09-23T05:33:27.818Z,23.50
2018-09-23T05:35:55.986Z,27.37
2018-09-23T05:38:24.138Z,19.90
2018-09-23T05:40:52.265Z,26.40
2018-09-23T05:43:20.423Z,22.70
2018-09-23T05:45:48.606Z,16.00
2018-09-23T05:48:16.774Z,23.23
2018-09-23T05:50:44.960Z,15.67
2018-09-23T05:53:13.358Z,32.50
2018-09-23T05:55:41.415Z,19.27
2018-09-23T05:58:09.569Z,30.37
2018-09-23T06:00:41.254Z,30.67
2018-09-23T06:03:09.572Z,32.67
2018-09-23T06:05:37.726Z,34.07
2018-09-23T06:08:05.867Z,30.37
2018-09-23T06:10:34.034Z,31.83
2018-09-23T06:13:02.196Z,31.00
2018-09-23T06:15:30.324Z,38.60
2018-09-23T06:17:58.454Z,35.70
2018-09-23T06:20:26.614Z,39.73
2018-09-23T06:22:54.792Z,31.50
2018-09-23T06:25:22.993Z,42.33
2018-09-23T06:27:51.058Z,39.10
2018-09-23T06:30:19.203Z,40.70
2018-09-23T06:32:47.350Z,37.97
2018-09-23T06:35:15.497Z,43.00
2018-09-23T06:37:43.646Z,46.90
2018-09-23T06:40:11.848Z,51.60
2018-09-23T06:42:39.988Z,36.00
2018-09-23T06:45:08.139Z,49.43
2018-09-23T06:47:36.277Z,44.87
2018-09-23T06:50:04.443Z,49.57
2018-09-23T06:52:32.591Z,56.47
2018-09-23T06:55:00.738Z,51.90
2018-09-23T06:57:28.892Z,42.53
2018-09-23T06:59:57.150Z,52.17
2018-09-23T07:02:25.315Z,50.03
2018-09-23T07:04:53.502Z,49.10
2018-09-23T07:07:21.598Z,56.20
2018-09-23T07:09:49.830Z,59.90
2018-09-23T07:12:17.995Z,48.43
2018-09-23T07:14:46.145Z,34.30
2018-09-23T07:17:14.291Z,44.10
2018-09-23T07:19:42.443Z,41.03
2018-09-23T07:22:10.577Z,39.93
2018-09-23T07:24:38.741Z,40.17
2018-09-23T07:27:07.162Z,39.53
2018-09-23T07:29:35.327Z,40.17
2018-09-23T07:32:03.478Z,38.07
2018-09-23T07:34:31.636Z,34.30
2018-09-23T07:36:59.861Z,33.70
2018-09-23T07:39:27.990Z,34.77
2018-09-23T07:41:56.079Z,34.70
2018-09-23T07:44:24.235Z,36.37
2018-09-23T07:46:52.396Z,32.80
2018-09-23T07:49:20.554Z,27.70
2018-09-23T07:51:48.685Z,30.80
2018-09-23T07:54:16.842Z,30.93
2018-09-23T07:56:44.979Z,28.10
2018-09-23T07:59:13.129Z,24.00
2018-09-23T08:01:41.390Z,26.40
2018-09-23T08:04:09.554Z,21.77
2018-09-23T08:06:37.712Z,22.33
2018-09-23T08:09:06.873Z,21.23
2018-09-23T08:11:35.007Z,16.40
2018-09-23T08:14:03.465Z,16.20
2018-09-23T08:16:31.323Z,17.00
2018-09-23T08:18:59.555Z,15.03
2018-09-23T08:21:27.677Z,16.57
2018-09-23T08:23:55.832Z,12.40
2018-09-23T08:26:24.028Z,11.50
2018-09-23T08:28:52.164Z,17.53
2018-09-23T08:31:20.286Z,14.37
2018-09-23T08:33:48.430Z,14.60
2018-09-23T08:36:16.571Z,14.80
2018-09-23T08:38:44.717Z,14.77
2018-09-23T08:41:13.350Z,14.10
2018-09-23T08:43:41.499Z,17.00
2018-09-23T08:46:09.630Z,11.33
2018-09-23T08:48:37.779Z,14.30
2018-09-23T08:51:05.902Z,13.67
2018-09-23T08:53:34.422Z,14.57
2018-09-23T08:56:02.690Z,15.20
2018-09-23T08:58:30.831Z,15.63
2018-09-23T09:00:58.980Z,13.97
2018-09-23T09:03:27.165Z,10.40
2018-09-23T09:05:55.291Z,13.17
2018-09-23T09:08:23.416Z,10.60
2018-09-23T09:10:51.555Z,15.10
2018-09-23T09:13:19.690Z,13.50
2018-09-23T09:15:47.838Z,12.80
2018-09-23T09:18:16.014Z,15.47
2018-09-23T09:20:44.129Z,15.87
2018-09-23T09:23:12.262Z,11.70
2018-09-23T09:25:40.394Z,10.87
2018-09-23T09:28:08.547Z,18.53
2018-09-23T09:30:36.687Z,12.20
2018-09-23T09:33:04.875Z,13.10
2018-09-23T09:35:33.027Z,7.77
2018-09-23T09:38:01.155Z,6.73
2018-09-23T09:40:29.298Z,8.87
2018-09-23T09:42:57.430Z,12.13
2018-09-23T09:45:25.591Z,8.00
2018-09-23T09:47:53.726Z,7.50
2018-09-23T09:50:21.865Z,10.30
2018-09-23T09:52:50.006Z,10.20
2018-09-23T09:55:18.177Z,10.07
2018-09-23T09:57:46.267Z,8.70
2018-09-23T10:00:17.670Z,6.37
2018-09-23T10:02:45.797Z,12.20
2018-09-23T10:05:13.938Z,11.70
2018-09-23T10:07:42.075Z,11.17
2018-09-23T10:10:10.223Z,10.83
2018-09-23T10:12:38.350Z,8.50
2018-09-23T10:15:06.564Z,7.67
2018-09-23T10:17:34.695Z,7.43
2018-09-23T10:20:02.843Z,7.00
2018-09-23T10:22:30.984Z,5.70
2018-09-23T10:24:59.106Z,8.80
2018-09-23T10:27:27.239Z,4.13
2018-09-23T10:29:55.418Z,7.80
2018-09-23T10:32:23.523Z,9.13
2018-09-23T10:34:51.748Z,4.73
2018-09-23T10:37:19.882Z,7.87
2018-09-23T10:39:48.007Z,7.80
2018-09-23T10:42:16.141Z,7.40
2018-09-23T10:44:44.290Z,5.17
2018-09-23T10:47:12.642Z,8.83
2018-09-23T10:49:41.115Z,6.70
2018-09-23T10:52:09.246Z,9.03
2018-09-23T10:54:37.380Z,13.13
2018-09-23T10:57:05.547Z,8.77
2018-09-23T10:59:34.383Z,7.70
2018-09-23T11:02:02.465Z,6.20
2018-09-23T11:04:30.600Z,5.67
2018-09-23T11:06:58.729Z,6.20
2018-09-23T11:09:26.870Z,5.60
2018-09-23T11:11:54.999Z,7.80
2018-09-23T11:14:23.139Z,6.10
2018-09-23T11:16:51.279Z,10.20
2018-09-23T11:19:19.429Z,10.87
2018-09-23T11:21:47.675Z,14.90
2018-09-23T11:24:15.834Z,10.43
2018-09-23T11:26:43.995Z,5.13
2018-09-23T11:29:12.115Z,7.20
2018-09-23T11:31:40.278Z,8.93
2018-09-23T11:34:08.410Z,8.27
2018-09-23T11:36:36.538Z,6.93
2018-09-23T11:39:08.319Z,11.70
2018-09-23T11:41:36.458Z,8.23
2018-09-23T11:44:04.603Z,16.20
2018-09-23T11:46:32.738Z,10.40
2018-09-23T11:49:00.871Z,8.37
2018-09-23T11:51:29.019Z,14.83
2018-09-23T11:53:57.319Z,13.00
2018-09-23T11:56:25.458Z,14.63
2018-09-23T11:58:53.671Z,9.47
2018-09-23T12:01:21.734Z,11.37
2018-09-23T12:03:49.868Z,14.23
2018-09-23T12:06:18.019Z,13.90
2018-09-23T12:08:46.169Z,7.77
2018-09-23T12:11:14.307Z,11.50
2018-09-23T12:13:42.478Z,12.53
2018-09-23T12:16:10.618Z,11.60
2018-09-23T12:18:38.802Z,12.50
2018-09-23T12:21:07.066Z,11.93
2018-09-23T12:23:35.293Z,13.60
2018-09-23T12:26:03.434Z,9.37
2018-09-23T12:28:31.572Z,13.63
2018-09-23T12:30:59.714Z,11.00
2018-09-23T12:33:27.865Z,13.83
2018-09-23T12:36:00.250Z,12.83
2018-09-23T12:38:28.489Z,12.37
2018-09-23T12:40:56.736Z,12.67
2018-09-23T12:43:24.878Z,13.90
2018-09-23T12:45:53.037Z,11.50
2018-09-23T12:48:21.194Z,11.50
2018-09-23T12:50:49.323Z,10.00
2018-09-23T12:53:17.588Z,10.10
2018-09-23T12:55:45.734Z,11.73
2018-09-23T12:58:13.870Z,10.20
2018-09-23T13:00:41.994Z,10.13
2018-09-23T13:03:10.126Z,9.03
2018-09-23T13:05:38.246Z,9.47
2018-09-23T13:08:06.460Z,9.27
2018-09-23T13:10:34.617Z,7.77
2018-09-23T13:13:02.759Z,9.90
2018-09-23T13:15:30.910Z,13.73
2018-09-23T13:17:59.071Z,9.57
2018-09-23T13:20:27.193Z,8.57
2018-09-23T13:22:55.345Z,9.90
2018-09-23T13:25:23.463Z,12.63
2018-09-23T13:27:51.611Z,9.17
2018-09-23T13:30:19.935Z,7.90
2018-09-23T13:32:48.091Z,11.53
2018-09-23T13:35:16.243Z,13.17
2018-09-23T13:37:44.395Z,11.77
2018-09-23T13:40:12.522Z,11.20
2018-09-23T13:42:40.936Z,8.80
2018-09-23T13:45:09.078Z,11.37
2018-09-23T13:47:37.249Z,10.47
2018-09-23T13:50:06.246Z,10.57
2018-09-23T13:52:34.713Z,10.50
2018-09-23T13:55:02.830Z,10.40
2018-09-23T13:57:31.003Z,14.53
2018-09-23T13:59:59.168Z,6.83
2018-09-23T14:02:27.351Z,8.80
2018-09-23T14:04:55.552Z,10.77
2018-09-23T14:07:23.698Z,11.27
2018-09-23T14:09:51.851Z,9.60
2018-09-23T14:12:19.990Z,11.40
2018-09-23T14:14:48.127Z,13.63
2018-09-23T14:17:16.278Z,12.63
2018-09-23T14:19:44.422Z,12.83
2018-09-23T14:22:12.565Z,12.90
2018-09-23T14:24:40.739Z,10.43
2018-09-23T14:27:08.906Z,12.60
2018-09-23T14:29:37.070Z,10.83
2018-09-23T14:32:05.278Z,16.50
2018-09-23T14:34:33.519Z,9.63
2018-09-23T14:37:01.649Z,11.00
2018-09-23T14:39:29.775Z,11.80
2018-09-23T14:41:58.002Z,16.33
2018-09-23T14:44:26.087Z,12.97
2018-09-23T14:46:54.254Z,13.37
2018-09-23T14:49:22.485Z,11.90
2018-09-23T14:51:50.650Z,9.13
2018-09-23T14:54:18.902Z,9.87
2018-09-23T14:56:47.054Z,8.20
2018-09-23T14:59:15.199Z,9.20
2018-09-23T15:01:43.430Z,14.67
2018-09-23T15:04:11.756Z,13.40
2018-09-23T15:06:39.871Z,10.70
2018-09-23T15:09:09.423Z,12.00
2018-09-23T15:11:37.587Z,9.13
2018-09-23T15:14:05.766Z,6.57
2018-09-23T15:16:33.866Z,10.93
2018-09-23T15:19:02.012Z,8.50
2018-09-23T15:21:30.155Z,7.00
2018-09-23T15:23:58.307Z,9.33
2018-09-23T15:26:26.453Z,8.47
2018-09-23T15:28:54.583Z,9.20
2018-09-23T15:31:22.731Z,6.53
2018-09-23T15:33:50.873Z,6.63
2018-09-23T15:36:19.029Z,7.00
2018-09-23T15:38:47.179Z,8.27
2018-09-23T15:41:15.530Z,4.23
2018-09-23T15:43:43.675Z,3.57
2018-09-23T15:46:11.995Z,4.93
2018-09-23T15:48:40.145Z,13.43
2018-09-23T15:51:08.273Z,5.27
2018-09-23T15:53:36.467Z,5.33
2018-09-23T15:56:04.608Z,6.60
2018-09-23T15:58:32.737Z,5.43
2018-09-23T16:01:00.908Z,5.20
2018-09-23T16:03:29.046Z,4.83
2018-09-23T16:05:57.175Z,5.83
2018-09-23T16:08:25.295Z,4.13
2018-09-23T16:10:53.458Z,6.37
2018-09-23T16:13:21.618Z,7.43
2018-09-23T16:15:49.830Z,7.00
2018-09-23T16:18:17.999Z,7.10
2018-09-23T16:20:46.090Z,6.47
2018-09-23T16:23:14.229Z,6.40
2018-09-23T16:25:42.370Z,5.77
2018-09-23T16:28:10.495Z,9.67
2018-09-23T16:30:38.626Z,7.23
2018-09-23T16:33:06.763Z,6.60
2018-09-23T16:35:34.893Z,8.00
2018-09-23T16:38:03.014Z,6.47
2018-09-23T16:40:31.174Z,9.27
2018-09-23T16:42:59.312Z,9.40
2018-09-23T16:45:27.442Z,7.53
2018-09-23T16:47:55.629Z,7.23
2018-09-23T16:50:23.786Z,9.47
2018-09-23T16:52:52.146Z,7.10
2018-09-23T16:55:20.274Z,7.83
2018-09-23T16:57:48.402Z,8.63
2018-09-23T17:00:16.574Z,8.23
2018-09-23T17:02:44.726Z,8.10
2018-09-23T17:05:12.878Z,11.83
2018-09-23T17:07:41.870Z,11.53
2018-09-23T17:10:10.011Z,12.93
2018-09-23T17:12:38.154Z,12.20
2018-09-23T17:15:06.282Z,8.10
2018-09-23T17:17:34.421Z,8.93
2018-09-23T17:20:02.583Z,7.53
2018-09-23T17:22:30.750Z,10.93
2018-09-23T17:24:58.908Z,8.50
2018-09-23T17:27:27.070Z,9.00
2018-09-23T17:29:55.199Z,9.77
2018-09-23T17:32:23.402Z,9.77
2018-09-23T17:34:51.583Z,10.83
2018-09-23T17:37:19.743Z,10.37
2018-09-23T17:39:47.942Z,11.03
2018-09-23T17:42:16.122Z,13.40
2018-09-23T17:44:44.255Z,9.80
2018-09-23T17:47:12.408Z,10.43
2018-09-23T17:49:40.538Z,10.37
2018-09-23T17:52:08.715Z,5.93
2018-09-23T17:54:36.868Z,6.63
2018-09-23T17:57:05.031Z,7.57
2018-09-23T17:59:33.191Z,5.00
2018-09-23T18:02:01.453Z,8.17
2018-09-23T18:04:29.726Z,6.60
2018-09-23T18:06:57.904Z,4.93
2018-09-23T18:09:26.120Z,5.90
2018-09-23T18:11:54.272Z,6.27
2018-09-23T18:14:22.442Z,8.13
2018-09-23T18:16:50.597Z,5.63
2018-09-23T18:19:19.079Z,6.43
2018-09-23T18:21:47.252Z,6.67
2018-09-23T18:24:15.387Z,6.73
2018-09-23T18:26:44.067Z,6.90
2018-09-23T18:29:12.209Z,5.83
2018-09-23T18:31:40.359Z,4.40
2018-09-23T18:34:08.519Z,7.83
2018-09-23T18:36:36.705Z,5.13
2018-09-23T18:39:07.698Z,5.23
2018-09-23T18:41:35.899Z,3.57
2018-09-23T18:44:04.045Z,7.73
2018-09-23T18:46:32.219Z,9.37
2018-09-23T18:49:00.390Z,5.07
2018-09-23T18:51:28.558Z,7.93
2018-09-23T18:54:02.111Z,5.47
2018-09-23T18:56:30.233Z,7.20
2018-09-23T18:58:58.390Z,5.03
2018-09-23T19:01:26.591Z,3.90
2018-09-23T19:03:54.682Z,4.80
2018-09-23T19:06:22.818Z,6.37
2018-09-23T19:08:50.954Z,4.40
2018-09-23T19:11:19.151Z,4.20
2018-09-23T19:13:51.423Z,5.20
2018-09-23T19:16:25.028Z,4.20
2018-09-23T19:18:53.787Z,6.03
2018-09-23T19:21:21.992Z,7.40
2018-09-23T19:23:50.133Z,2.83
2018-09-23T19:26:18.281Z,6.17
2018-09-23T19:28:46.415Z,4.60
2018-09-23T19:31:14.574Z,4.80
2018-09-23T19:33:42.715Z,7.53
2018-09-23T19:36:10.845Z,3.67
2018-09-23T19:38:39.033Z,4.23
2018-09-23T19:41:07.508Z,3.83
2018-09-23T19:43:35.787Z,5.03
2018-09-23T19:46:04.466Z,4.97
2018-09-23T19:48:32.896Z,5.83
2018-09-23T19:51:01.020Z,3.70
2018-09-23T19:53:29.158Z,6.67
2018-09-23T19:55:57.314Z,3.97
2018-09-23T19:58:25.530Z,3.20
2018-09-23T20:00:53.715Z,4.03
2018-09-23T20:03:21.945Z,3.60
2018-09-23T20:05:50.089Z,6.00
2018-09-23T20:08:18.391Z,7.20
2018-09-23T20:10:46.526Z,9.10
2018-09-23T20:13:14.670Z,6.20
2018-09-23T20:15:42.841Z,5.40
2018-09-23T20:18:11.023Z,4.20
2018-09-23T20:20:39.155Z,2.73
2018-09-23T20:23:07.338Z,6.93
2018-09-23T20:25:35.550Z,4.47
2018-09-23T20:28:03.671Z,5.33
2018-09-23T20:30:31.958Z,2.87
2018-09-23T20:33:00.174Z,2.73
2018-09-23T20:35:28.346Z,3.03
2018-09-23T20:37:56.487Z,3.50
2018-09-23T20:40:24.674Z,4.30
2018-09-23T20:42:52.807Z,3.30
2018-09-23T20:45:20.963Z,4.47
2018-09-23T20:47:49.102Z,4.20
2018-09-23T20:50:17.262Z,4.50
2018-09-23T20:52:45.417Z,3.60
2018-09-23T20:55:13.781Z,2.67
2018-09-23T20:57:41.864Z,5.03
2018-09-23T21:00:10.011Z,2.67
2018-09-23T21:02:38.166Z,2.40
2018-09-23T21:05:06.818Z,7.33
2018-09-23T21:07:34.962Z,3.17
2018-09-23T21:10:03.164Z,3.67
2018-09-23T21:12:31.254Z,4.30
2018-09-23T21:14:59.396Z,8.37
2018-09-23T21:17:27.543Z,4.70
2018-09-23T21:19:55.690Z,2.90
2018-09-23T21:22:23.827Z,2.47
2018-09-23T21:24:51.987Z,5.63
2018-09-23T21:27:20.118Z,3.07
2018-09-23T21:29:48.263Z,3.07
2018-09-23T21:32:16.398Z,3.37
2018-09-23T21:34:44.579Z,3.50
2018-09-23T21:37:12.718Z,9.10
2018-09-23T21:39:40.851Z,6.37
2018-09-23T21:42:08.990Z,9.93
2018-09-23T21:44:37.121Z,4.60
2018-09-23T21:47:05.254Z,5.00
2018-09-23T21:49:33.386Z,4.83
2018-09-23T21:52:01.510Z,3.83
2018-09-23T21:54:29.642Z,2.50
2018-09-23T21:56:57.769Z,4.70
2018-09-23T21:59:25.906Z,4.77
2018-09-23T22:01:54.027Z,4.83
2018-09-23T22:04:22.166Z,4.50
2018-09-23T22:06:50.306Z,5.10
2018-09-23T22:09:18.438Z,2.40
2018-09-23T22:11:46.570Z,4.30
2018-09-23T22:14:14.718Z,3.90
2018-09-23T22:16:42.861Z,4.77
2018-09-23T22:19:10.999Z,4.87
2018-09-23T22:21:39.157Z,4.10
2018-09-23T22:24:07.274Z,5.67
2018-09-23T22:26:35.418Z,4.83
2018-09-23T22:29:03.551Z,3.53
2018-09-23T22:31:31.706Z,5.00
2018-09-23T22:33:59.857Z,5.83
2018-09-23T22:36:27.981Z,5.13
2018-09-23T22:38:56.110Z,4.30
2018-09-23T22:41:24.252Z,3.77
2018-09-23T22:43:52.370Z,4.50
2018-09-23T22:46:20.529Z,4.40
2018-09-23T22:48:48.663Z,6.30
2018-09-23T22:51:16.807Z,4.67
2018-09-23T22:53:44.939Z,4.70
2018-09-23T22:56:13.074Z,4.93
2018-09-23T22:58:41.200Z,7.60
2018-09-23T23:01:09.407Z,5.57
2018-09-23T23:03:37.533Z,5.80
2018-09-23T23:06:05.703Z,4.83
2018-09-23T23:08:33.826Z,5.03
2018-09-23T23:11:01.967Z,3.33
2018-09-23T23:13:30.094Z,5.40
2018-09-23T23:15:58.322Z,5.13
2018-09-23T23:18:26.453Z,5.30
2018-09-23T23:20:54.603Z,4.93
2018-09-23T23:23:22.732Z,5.43
2018-09-23T23:25:50.914Z,4.00
2018-09-23T23:28:19.033Z,4.83
2018-09-23T23:30:47.170Z,8.50
2018-09-23T23:33:15.340Z,6.23
2018-09-23T23:35:43.478Z,4.63
2018-09-23T23:38:11.611Z,7.13
2018-09-23T23:40:39.730Z,8.07
2018-09-23T23:43:07.874Z,9.67
2018-09-23T23:45:36.090Z,4.17
2018-09-23T23:48:04.214Z,7.67
2018-09-23T23:50:32.345Z,2.80
2018-09-23T23:53:00.475Z,4.60
2018-09-23T23:55:28.603Z,5.77
2018-09-23T23:57:56.743Z,4.43
